This is the latest recevied weather packets stored in our database for station/object OSTR-WX. If no packets are shown the sender has not sent any weather packets the latest 10 day(s).
| Time | Temp. | Humidity | Pressure | Rain* | Wind** | Luminosity | Snow |
|---|---|---|---|---|---|---|---|
| 1777936288 | 9.44° C | 83% | 1014.6 hPa | - | - | - | - |
| 1777935331 | 10° C | 82% | 1014.7 hPa | - | - | - | - |
| 1777934374 | 10° C | 81% | 1014.7 hPa | - | - | - | - |
| 1777933417 | 10.56° C | 80% | 1014.6 hPa | - | - | - | - |
| 1777932460 | 10.56° C | 80% | 1014.7 hPa | - | - | - | - |
| 1777931503 | 11.11° C | 79% | 1014.6 hPa | - | - | - | - |
| 1777930547 | 11.11° C | 77% | 1014.5 hPa | - | - | - | - |
| 1777929589 | 11.67° C | 77% | 1014.6 hPa | - | - | - | - |
| 1777928632 | 11.67° C | 75% | 1014.5 hPa | - | - | - | - |
| 1777927675 | 11.67° C | 74% | 1014.4 hPa | - | - | - | - |
| 1777926718 | 12.22° C | 72% | 1014.2 hPa | - | - | - | - |
| 1777925762 | 0° C | 100% | 0 hPa | - | - | - | - |
| 1777924805 | 0° C | 100% | 0 hPa | - | - | - | - |
| 1777923847 | 0° C | 100% | 0 hPa | - | - | - | - |
| 1777922898 | 14.44° C | 65% | 1013.8 hPa | - | - | - | - |
| 1777922890 | 14.44° C | 65% | 1013.8 hPa | - | - | - | - |
| 1777921939 | 15.56° C | 61% | 1013.6 hPa | - | - | - | - |
| 1777921933 | 15.56° C | 61% | 1013.6 hPa | - | - | - | - |
| 1777920976 | 16.11° C | 59% | 1013.4 hPa | - | - | - | - |
| 1777920025 | 17.78° C | 55% | 1013.1 hPa | - | - | - | - |
| 1777920019 | 17.78° C | 55% | 1013.1 hPa | - | - | - | - |
| 1777919062 | 19.44° C | 49% | 1012.7 hPa | - | - | - | - |
| 1777918111 | 20° C | 48% | 1012.5 hPa | - | - | - | - |
| 1777918105 | 20° C | 48% | 1012.5 hPa | - | - | - | - |
| 1777917154 | 22.22° C | 41% | 1012.2 hPa | - | - | - | - |
* Rain since midnight (hover to see other rain measurements)
** Current wind speed in m/s (hover to see current wind gust speed)